Tenerife > ESTACION METEOROLÓGICA Aeropuerto Sur

DATOS ACTUALES Online

Ultima actulizacion 47 minutos

21.3 ºC

Temperatura

63

Humedad (%)

1021.1

Presión (mb)

0

Precipitación (mm)

7.6 NO

Viento (Km/h)

DATOS DIARIOS

Temperatura últimas 24 horas (ºC)

Humedad últimas 24 horas (%)

Presión atmosférica últimas 24 horas (mb)

Precipitaciones últimas 23 horas (mm)

Viento últimas 24 horas (Km/h)

Hora Temperatura (°C) ºC Precipitación (mm) mm Presión (mb) mb Humedad (%) % Viento (Km/h) km/h
28 - 09:00 22.1 0 1020 62 7.4 NO
28 - 10:00 24 0 1020 48 9.6 NO
28 - 11:00 24.5 0 1021 50 9.2 O
28 - 12:00 24.3 0 1021 57 9.5 O
28 - 13:00 22.9 0 1022 58 11.6 NO
28 - 14:00 23.8 0 1021 52 9.4 NO
28 - 15:00 24.5 0 1021 51 10.4 O
28 - 16:00 25.8 0 1020 49 11 O
28 - 17:00 25.5 0 1020 51 12.1 O
28 - 18:00 25.1 0 1020 54 11.3 O
28 - 19:00 24.1 0 1020 59 10.6 O
28 - 20:00 23 0 1020 63 10.6 NO
28 - 21:00 21.8 0 1020 64 9.1 NO
28 - 22:00 21.6 0 1021 62 9.2 NO
28 - 23:00 21.2 0 1021 62 7.9 NO
29 - 00:00 21 0 1021 70 10.5 NO
29 - 01:00 21 0 1021 68 8.4 NO
29 - 02:00 20.9 0 1021 64 8.5 NO
29 - 03:00 20.8 0 1020 73 5.7 NO
29 - 04:00 20.8 0 1020 68 6.5 NO
29 - 05:00 20.8 0 1020 64 6.6 NO
29 - 06:00 20.3 0 1020 73 6 O
29 - 07:00 20.4 0 1020 69 6.1 NO
29 - 08:00 20.4 0 1021 75 6.9 NO
29 - 09:00 21.3 0 1021 63 7.6 NO
Apalmet utiliza cookies propias y de terceros para mejorar la usabilidad y la experiencia web. Política de cookies.